createdAt,value
2018-03-22T00:02:10.226Z,2.49
2018-03-22T00:04:37.826Z,2.48
2018-03-22T00:07:05.468Z,2.53
2018-03-22T00:09:33.052Z,2.50
2018-03-22T00:12:00.633Z,2.53
2018-03-22T00:14:28.271Z,2.55
2018-03-22T00:16:55.865Z,2.60
2018-03-22T00:19:23.511Z,2.51
2018-03-22T00:21:51.100Z,2.51
2018-03-22T00:24:18.718Z,2.53
2018-03-22T00:26:46.308Z,2.54
2018-03-22T00:29:13.895Z,2.53
2018-03-22T00:31:41.483Z,2.49
2018-03-22T00:34:09.071Z,2.45
2018-03-22T00:36:36.699Z,2.45
2018-03-22T00:39:04.451Z,2.42
2018-03-22T00:41:32.080Z,2.42
2018-03-22T00:43:59.674Z,2.42
2018-03-22T00:46:27.302Z,2.38
2018-03-22T00:48:54.888Z,2.35
2018-03-22T00:51:22.464Z,2.25
2018-03-22T00:53:50.098Z,2.24
2018-03-22T00:56:17.673Z,2.22
2018-03-22T00:58:45.306Z,2.18
2018-03-22T01:01:12.886Z,2.10
2018-03-22T01:03:40.471Z,2.06
2018-03-22T01:06:08.050Z,2.02
2018-03-22T01:08:35.618Z,1.94
2018-03-22T01:11:03.238Z,1.88
2018-03-22T01:13:30.817Z,1.87
2018-03-22T01:15:58.450Z,1.83
2018-03-22T01:18:26.097Z,1.84
2018-03-22T01:20:53.671Z,1.87
2018-03-22T01:23:21.248Z,1.85
2018-03-22T01:25:48.814Z,1.83
2018-03-22T01:28:16.390Z,1.86
2018-03-22T01:30:44.012Z,1.83
2018-03-22T01:33:11.595Z,1.79
2018-03-22T01:35:39.162Z,1.82
2018-03-22T01:38:06.854Z,1.83
2018-03-22T01:40:34.491Z,1.83
2018-03-22T01:43:02.056Z,1.80
2018-03-22T01:45:29.635Z,1.78
2018-03-22T01:47:57.208Z,1.76
2018-03-22T01:50:24.855Z,1.76
2018-03-22T01:53:04.262Z,1.77
2018-03-22T01:55:31.842Z,1.76
2018-03-22T01:57:59.510Z,1.79
2018-03-22T02:00:27.154Z,1.78
2018-03-22T02:02:54.795Z,1.75
2018-03-22T02:05:22.435Z,1.72
2018-03-22T02:07:50.055Z,1.75
2018-03-22T02:10:17.687Z,1.73
2018-03-22T02:12:45.329Z,1.77
2018-03-22T02:15:12.941Z,1.78
2018-03-22T02:17:40.516Z,1.78
2018-03-22T02:20:08.085Z,1.78
2018-03-22T02:22:35.729Z,1.78
2018-03-22T02:25:03.337Z,1.79
2018-03-22T02:27:31.003Z,1.78
2018-03-22T02:29:58.583Z,1.80
2018-03-22T02:32:26.156Z,1.76
2018-03-22T02:34:53.796Z,1.80
2018-03-22T02:37:21.431Z,1.76
2018-03-22T02:39:49.017Z,1.74
2018-03-22T02:42:16.589Z,1.80
2018-03-22T02:44:44.220Z,1.77
2018-03-22T02:47:11.861Z,1.84
2018-03-22T02:49:39.440Z,1.84
2018-03-22T02:52:07.018Z,1.83
2018-03-22T02:54:34.591Z,1.85
2018-03-22T02:57:02.232Z,1.84
2018-03-22T02:59:29.809Z,1.84
2018-03-22T03:01:57.382Z,1.87
2018-03-22T03:04:24.949Z,1.83
2018-03-22T03:06:52.613Z,1.83
2018-03-22T03:09:20.250Z,1.80
2018-03-22T03:11:47.871Z,1.82
2018-03-22T03:14:15.451Z,1.85
2018-03-22T03:16:43.029Z,1.82
2018-03-22T03:19:10.603Z,1.83
2018-03-22T03:21:38.182Z,1.84
2018-03-22T03:24:05.760Z,1.83
2018-03-22T03:26:33.333Z,1.86
2018-03-22T03:29:01.002Z,1.90
2018-03-22T03:31:28.563Z,1.92
2018-03-22T03:33:56.186Z,1.89
2018-03-22T03:36:23.772Z,1.89
2018-03-22T03:38:51.341Z,1.90
2018-03-22T03:41:18.969Z,1.88
2018-03-22T03:43:46.506Z,1.89
2018-03-22T03:46:14.197Z,1.88
2018-03-22T03:48:41.771Z,1.89
2018-03-22T03:51:09.342Z,1.91
2018-03-22T03:53:36.932Z,1.92
2018-03-22T03:56:04.502Z,1.91
2018-03-22T03:58:32.088Z,1.91
2018-03-22T04:00:59.722Z,1.88
2018-03-22T04:03:27.405Z,1.91
2018-03-22T04:05:54.976Z,1.91
2018-03-22T04:08:22.545Z,1.90
2018-03-22T04:10:50.179Z,1.84
2018-03-22T04:13:17.818Z,1.87
2018-03-22T04:15:45.402Z,1.85
2018-03-22T04:18:13.071Z,1.81
2018-03-22T04:20:40.657Z,1.76
2018-03-22T04:23:08.230Z,1.82
2018-03-22T04:25:35.867Z,1.82
2018-03-22T04:28:03.500Z,1.82
2018-03-22T04:30:31.132Z,1.84
2018-03-22T04:32:58.713Z,1.83
2018-03-22T04:35:26.283Z,1.85
2018-03-22T04:37:53.934Z,1.87
2018-03-22T04:40:21.502Z,1.88
2018-03-22T04:42:49.077Z,1.89
2018-03-22T04:45:16.647Z,1.92
2018-03-22T04:47:44.288Z,1.91
2018-03-22T04:50:11.866Z,1.90
2018-03-22T04:52:39.499Z,1.88
2018-03-22T04:55:07.073Z,1.92
2018-03-22T04:57:34.712Z,1.89
2018-03-22T05:00:02.285Z,1.90
2018-03-22T05:02:29.868Z,1.89
2018-03-22T05:04:57.453Z,1.86
2018-03-22T05:07:25.022Z,1.90
2018-03-22T05:09:52.663Z,1.83
2018-03-22T05:12:20.279Z,1.91
2018-03-22T05:14:47.908Z,1.96
2018-03-22T05:17:15.484Z,1.97
2018-03-22T05:19:43.052Z,1.96
2018-03-22T05:22:10.622Z,1.96
2018-03-22T05:24:38.254Z,1.88
2018-03-22T05:27:05.949Z,1.93
2018-03-22T05:29:33.522Z,1.88
2018-03-22T05:32:01.089Z,1.91
2018-03-22T05:34:28.728Z,1.86
2018-03-22T05:36:56.359Z,1.89
2018-03-22T05:39:24.005Z,1.87
2018-03-22T05:41:51.584Z,1.86
2018-03-22T05:44:19.195Z,1.66
2018-03-22T05:46:46.798Z,1.54
2018-03-22T05:49:14.361Z,1.37
2018-03-22T05:51:41.940Z,1.35
2018-03-22T05:54:09.511Z,1.30
2018-03-22T05:56:37.088Z,1.38
2018-03-22T05:59:04.661Z,1.35
2018-03-22T06:01:32.243Z,1.39
2018-03-22T06:03:59.880Z,1.20
2018-03-22T06:06:28.367Z,1.14
2018-03-22T06:08:55.997Z,1.09
2018-03-22T06:11:23.567Z,1.15
2018-03-22T06:13:51.207Z,1.12
2018-03-22T06:16:18.778Z,1.10
2018-03-22T06:18:46.355Z,0.98
2018-03-22T06:21:13.921Z,1.10
2018-03-22T06:23:41.509Z,1.21
2018-03-22T06:26:09.135Z,1.30
2018-03-22T06:28:36.771Z,1.27
2018-03-22T06:31:04.394Z,1.32
2018-03-22T06:33:31.958Z,1.35
2018-03-22T06:35:59.602Z,1.36
2018-03-22T06:38:27.168Z,1.39
2018-03-22T06:40:54.746Z,1.38
2018-03-22T06:43:22.309Z,1.31
2018-03-22T06:45:49.886Z,1.37
2018-03-22T06:48:17.515Z,1.33
2018-03-22T06:50:45.130Z,1.25
2018-03-22T06:53:12.699Z,1.20
2018-03-22T06:55:40.328Z,1.32
2018-03-22T06:58:07.909Z,1.32
2018-03-22T07:00:35.522Z,1.22
2018-03-22T07:03:03.158Z,1.22
2018-03-22T07:05:30.812Z,1.28
2018-03-22T07:07:58.496Z,1.26
2018-03-22T07:10:26.057Z,1.16
2018-03-22T07:12:53.687Z,1.15
2018-03-22T07:15:21.267Z,1.15
2018-03-22T07:17:48.848Z,1.11
2018-03-22T07:20:16.438Z,1.16
2018-03-22T07:22:44.003Z,1.17
2018-03-22T07:25:11.592Z,1.28
2018-03-22T07:27:39.171Z,1.17
2018-03-22T07:30:06.892Z,1.12
2018-03-22T07:32:34.555Z,1.09
2018-03-22T07:35:02.180Z,1.26
2018-03-22T07:37:29.760Z,1.25
2018-03-22T07:39:57.334Z,1.27
2018-03-22T07:42:24.905Z,1.25
2018-03-22T07:44:52.515Z,1.23
2018-03-22T07:47:20.146Z,1.15
2018-03-22T07:49:47.715Z,1.12
2018-03-22T07:52:15.279Z,1.08
2018-03-22T07:54:42.851Z,1.08
2018-03-22T07:57:10.446Z,1.02
2018-03-22T07:59:38.118Z,1.09
2018-03-22T08:02:05.747Z,1.15
2018-03-22T08:04:33.384Z,1.25
2018-03-22T08:07:00.960Z,1.24
2018-03-22T08:09:28.586Z,1.08
2018-03-22T08:11:56.158Z,1.12
2018-03-22T08:14:23.787Z,1.22
2018-03-22T08:16:51.365Z,1.17
2018-03-22T08:19:18.926Z,1.07
2018-03-22T08:21:46.558Z,1.00
2018-03-22T08:24:14.124Z,0.92
2018-03-22T08:26:41.692Z,0.92
2018-03-22T08:29:09.347Z,0.87
2018-03-22T08:31:36.978Z,0.82
2018-03-22T08:34:04.552Z,0.94
2018-03-22T08:36:32.178Z,1.01
2018-03-22T08:38:59.843Z,0.94
2018-03-22T08:41:27.409Z,0.90
2018-03-22T08:43:55.035Z,0.84
2018-03-22T08:46:22.607Z,0.92
2018-03-22T08:48:50.206Z,0.92
2018-03-22T08:51:17.776Z,0.83
2018-03-22T08:53:45.342Z,0.86
2018-03-22T08:56:13.023Z,0.83
2018-03-22T08:58:40.585Z,0.90
2018-03-22T09:01:08.206Z,0.99
2018-03-22T09:03:35.837Z,0.98
2018-03-22T09:06:03.412Z,0.95
2018-03-22T09:08:30.981Z,0.96
2018-03-22T09:10:58.607Z,1.05
2018-03-22T09:13:26.299Z,1.04
2018-03-22T09:15:53.891Z,1.13
2018-03-22T09:18:21.472Z,1.16
2018-03-22T09:20:49.049Z,1.18
2018-03-22T09:23:16.686Z,1.11
2018-03-22T09:25:44.230Z,1.10
2018-03-22T09:28:11.792Z,1.13
2018-03-22T09:30:39.371Z,1.16
2018-03-22T09:33:06.995Z,1.04
2018-03-22T09:35:34.571Z,1.08
2018-03-22T09:38:02.130Z,1.21
2018-03-22T09:40:29.807Z,1.40
2018-03-22T09:42:57.431Z,1.35
2018-03-22T09:45:25.063Z,1.45
2018-03-22T09:47:52.646Z,1.45
2018-03-22T09:50:20.210Z,1.38
2018-03-22T09:52:47.817Z,1.46
2018-03-22T09:55:15.382Z,1.46
2018-03-22T09:57:43.046Z,1.32
2018-03-22T10:00:10.675Z,1.40
2018-03-22T10:02:38.311Z,1.39
2018-03-22T10:05:05.942Z,1.42
2018-03-22T10:07:33.570Z,1.26
2018-03-22T10:10:01.138Z,1.27
2018-03-22T10:12:28.786Z,1.23
2018-03-22T10:14:56.478Z,1.19
2018-03-22T10:17:24.054Z,1.15
2018-03-22T10:19:51.619Z,1.06
2018-03-22T10:22:19.227Z,1.09
2018-03-22T10:24:46.786Z,1.04
2018-03-22T10:27:14.414Z,1.19
2018-03-22T10:29:41.985Z,1.15
2018-03-22T10:32:09.554Z,1.22
2018-03-22T10:34:37.114Z,1.17
2018-03-22T10:37:04.798Z,1.11
2018-03-22T10:39:32.422Z,1.24
2018-03-22T10:42:00.030Z,1.07
2018-03-22T10:44:27.594Z,1.18
2018-03-22T10:46:55.234Z,1.13
2018-03-22T10:49:22.867Z,0.96
2018-03-22T10:51:50.492Z,0.99
2018-03-22T10:54:18.071Z,0.95
2018-03-22T10:56:45.711Z,1.02
2018-03-22T10:59:13.349Z,0.99
2018-03-22T11:01:46.470Z,1.18
2018-03-22T11:04:14.090Z,1.16
2018-03-22T11:06:41.658Z,1.09
2018-03-22T11:09:09.223Z,1.15
2018-03-22T11:11:36.872Z,1.10
2018-03-22T11:14:04.511Z,0.98
2018-03-22T11:16:32.196Z,0.93
2018-03-22T11:18:59.840Z,0.94
2018-03-22T11:21:27.421Z,0.79
2018-03-22T11:23:55.047Z,0.87
2018-03-22T11:26:22.698Z,0.83
2018-03-22T11:28:50.283Z,0.83
2018-03-22T11:31:17.931Z,0.99
2018-03-22T11:33:45.508Z,1.11
2018-03-22T11:36:13.194Z,1.15
2018-03-22T11:38:40.766Z,1.04
2018-03-22T11:41:08.327Z,1.14
2018-03-22T11:43:35.951Z,1.20
2018-03-22T11:46:03.536Z,1.07
2018-03-22T11:48:31.175Z,1.14
2018-03-22T11:50:58.847Z,1.13
2018-03-22T11:53:26.411Z,1.19
2018-03-22T11:55:54.004Z,1.26
2018-03-22T11:58:21.585Z,1.15
2018-03-22T12:00:49.161Z,1.18
2018-03-22T12:03:16.807Z,1.24
2018-03-22T12:05:44.453Z,1.19
2018-03-22T12:08:12.028Z,1.19
2018-03-22T12:10:39.606Z,0.97
2018-03-22T12:13:07.190Z,1.04
2018-03-22T12:15:34.771Z,1.12
2018-03-22T12:18:02.351Z,1.26
2018-03-22T12:20:29.922Z,1.21
2018-03-22T12:22:57.495Z,1.24
2018-03-22T12:25:25.058Z,1.22
2018-03-22T12:27:52.691Z,1.17
2018-03-22T12:30:20.263Z,1.24
2018-03-22T12:32:47.896Z,1.33
2018-03-22T12:35:15.538Z,1.30
2018-03-22T12:37:43.916Z,1.33
2018-03-22T12:40:11.584Z,1.32
2018-03-22T12:42:39.208Z,1.21
2018-03-22T12:45:06.884Z,1.38
2018-03-22T12:47:34.462Z,1.35
2018-03-22T12:50:02.035Z,1.36
2018-03-22T12:52:29.613Z,1.47
2018-03-22T12:54:57.263Z,1.46
2018-03-22T12:57:24.840Z,1.46
2018-03-22T12:59:53.288Z,1.39
2018-03-22T13:02:20.854Z,1.38
2018-03-22T13:04:48.435Z,1.36
2018-03-22T13:07:16.004Z,1.35
2018-03-22T13:09:43.581Z,1.30
2018-03-22T13:12:11.167Z,1.34
2018-03-22T13:14:38.740Z,1.34
2018-03-22T13:17:06.377Z,1.27
2018-03-22T13:19:34.019Z,1.14
2018-03-22T13:22:01.660Z,1.17
2018-03-22T13:24:29.303Z,1.19
2018-03-22T13:26:56.866Z,1.21
2018-03-22T13:29:24.462Z,1.30
2018-03-22T13:31:52.111Z,1.44
2018-03-22T13:34:19.764Z,1.38
2018-03-22T13:36:47.376Z,1.13
2018-03-22T13:39:15.030Z,1.18
2018-03-22T13:41:42.685Z,1.25
2018-03-22T13:44:10.314Z,1.36
2018-03-22T13:46:37.947Z,1.30
2018-03-22T13:49:05.527Z,1.30
2018-03-22T13:51:33.110Z,1.30
2018-03-22T13:54:00.691Z,1.43
2018-03-22T13:56:28.260Z,1.45
2018-03-22T13:58:55.887Z,1.42
2018-03-22T14:01:23.466Z,1.34
2018-03-22T14:03:51.980Z,1.36
2018-03-22T14:06:19.614Z,1.14
2018-03-22T14:08:47.243Z,1.16
2018-03-22T14:11:14.885Z,1.30
2018-03-22T14:13:42.534Z,1.23
2018-03-22T14:16:10.176Z,1.15
2018-03-22T14:18:37.816Z,0.98
2018-03-22T14:21:05.386Z,1.02
2018-03-22T14:23:33.038Z,0.99
2018-03-22T14:26:00.680Z,0.96
2018-03-22T14:28:28.246Z,0.90
2018-03-22T14:30:55.823Z,0.80
2018-03-22T14:33:23.399Z,0.82
2018-03-22T14:35:50.962Z,0.92
2018-03-22T14:38:18.538Z,1.01
2018-03-22T14:40:46.158Z,1.07
2018-03-22T14:43:13.746Z,0.86
2018-03-22T14:45:41.327Z,0.82
2018-03-22T14:48:08.922Z,0.80
2018-03-22T14:50:36.562Z,0.72
2018-03-22T14:53:04.145Z,0.79
2018-03-22T14:55:31.810Z,0.77
2018-03-22T14:57:59.453Z,0.68
2018-03-22T15:00:27.083Z,0.63
2018-03-22T15:02:54.654Z,0.62
2018-03-22T15:05:22.318Z,0.55
2018-03-22T15:07:49.955Z,0.69
2018-03-22T15:10:17.592Z,0.65
2018-03-22T15:12:45.223Z,0.62
2018-03-22T15:15:12.812Z,0.48
2018-03-22T15:17:40.389Z,0.54
2018-03-22T15:20:07.998Z,0.53
2018-03-22T15:22:35.632Z,0.49
2018-03-22T15:25:03.266Z,0.44
2018-03-22T15:27:30.907Z,0.44
2018-03-22T15:29:58.531Z,0.44
2018-03-22T15:32:26.178Z,0.34
2018-03-22T15:34:53.738Z,0.40
2018-03-22T15:37:21.339Z,0.32
2018-03-22T15:39:48.907Z,0.31
2018-03-22T15:42:16.475Z,0.37
2018-03-22T15:44:44.090Z,0.38
2018-03-22T15:47:11.654Z,0.37
2018-03-22T15:49:39.221Z,0.29
2018-03-22T15:52:06.798Z,0.25
2018-03-22T15:54:34.377Z,0.10
2018-03-22T15:57:02.001Z,0.15
2018-03-22T15:59:29.567Z,0.23
2018-03-22T16:01:57.144Z,0.22
2018-03-22T16:04:24.724Z,0.21
2018-03-22T16:06:52.297Z,0.21
2018-03-22T16:09:19.989Z,0.15
2018-03-22T16:11:47.623Z,0.17
2018-03-22T16:14:15.272Z,0.18
2018-03-22T16:16:42.926Z,0.09
2018-03-22T16:19:10.498Z,0.06
2018-03-22T16:21:38.131Z,-0.03
2018-03-22T16:24:05.775Z,-0.13
2018-03-22T16:26:33.362Z,-0.17
2018-03-22T16:29:00.955Z,-0.19
2018-03-22T16:31:28.538Z,-0.24
2018-03-22T16:33:56.223Z,-0.26
2018-03-22T16:36:23.897Z,-0.27
2018-03-22T16:38:51.491Z,-0.29
2018-03-22T16:41:19.078Z,-0.25
2018-03-22T16:43:46.669Z,-0.31
2018-03-22T16:46:14.292Z,-0.30
2018-03-22T16:48:41.923Z,-0.30
2018-03-22T16:51:09.489Z,-0.35
2018-03-22T16:53:37.076Z,-0.31
2018-03-22T16:56:04.656Z,-0.31
2018-03-22T16:58:32.281Z,-0.31
2018-03-22T17:00:59.855Z,-0.29
2018-03-22T17:03:27.416Z,-0.21
2018-03-22T17:05:55.074Z,-0.26
2018-03-22T17:08:22.759Z,-0.26
2018-03-22T17:10:50.482Z,-0.27
2018-03-22T17:13:18.060Z,-0.22
2018-03-22T17:15:45.645Z,-0.30
2018-03-22T17:18:13.227Z,-0.30
2018-03-22T17:20:40.804Z,-0.29
2018-03-22T17:23:08.438Z,-0.30
2018-03-22T17:25:36.077Z,-0.28
2018-03-22T17:28:03.646Z,-0.30
2018-03-22T17:30:31.218Z,-0.32
2018-03-22T17:32:58.804Z,-0.32
2018-03-22T17:35:26.419Z,-0.32
2018-03-22T17:37:53.981Z,-0.31
2018-03-22T17:40:21.547Z,-0.32
2018-03-22T17:42:49.179Z,-0.35
2018-03-22T17:45:16.749Z,-0.32
2018-03-22T17:47:44.394Z,-0.31
2018-03-22T17:50:11.963Z,-0.28
2018-03-22T17:52:39.565Z,-0.30
2018-03-22T17:55:07.166Z,-0.33
2018-03-22T17:57:34.773Z,-0.37
2018-03-22T18:00:02.358Z,-0.37
2018-03-22T18:02:29.983Z,-0.34
2018-03-22T18:04:57.604Z,-0.38
2018-03-22T18:07:25.170Z,-0.43
2018-03-22T18:09:52.795Z,-0.38
2018-03-22T18:12:20.463Z,-0.40
2018-03-22T18:14:48.042Z,-0.37
2018-03-22T18:17:15.703Z,-0.43
2018-03-22T18:19:43.278Z,-0.42
2018-03-22T18:22:11.015Z,-0.43
2018-03-22T18:24:38.646Z,-0.41
2018-03-22T18:27:06.275Z,-0.40
2018-03-22T18:29:33.866Z,-0.42
2018-03-22T18:32:01.431Z,-0.46
2018-03-22T18:34:29.068Z,-0.43
2018-03-22T18:36:56.697Z,-0.50
2018-03-22T18:39:24.280Z,-0.46
2018-03-22T18:41:51.867Z,-0.51
2018-03-22T18:44:19.449Z,-0.46
2018-03-22T18:46:47.091Z,-0.46
2018-03-22T18:49:14.723Z,-0.48
2018-03-22T18:51:42.424Z,-0.51
2018-03-22T18:54:09.994Z,-0.49
2018-03-22T18:56:37.564Z,-0.55
2018-03-22T18:59:05.202Z,-0.53
2018-03-22T19:01:32.770Z,-0.56
2018-03-22T19:04:00.409Z,-0.50
2018-03-22T19:06:28.007Z,-0.51
2018-03-22T19:08:55.646Z,-0.50
2018-03-22T19:11:23.280Z,-0.52
2018-03-22T19:13:50.896Z,-0.51
2018-03-22T19:16:18.519Z,-0.58
2018-03-22T19:18:46.081Z,-0.61
2018-03-22T19:21:13.659Z,-0.55
2018-03-22T19:23:41.235Z,-0.53
2018-03-22T19:26:08.888Z,-0.59
2018-03-22T19:28:36.461Z,-0.62
2018-03-22T19:31:04.039Z,-0.68
2018-03-22T19:33:31.627Z,-0.58
2018-03-22T19:35:59.190Z,-0.59
2018-03-22T19:38:26.831Z,-0.52
2018-03-22T19:40:54.454Z,-0.49
2018-03-22T19:43:22.077Z,-0.50
2018-03-22T19:45:49.639Z,-0.59
2018-03-22T19:48:17.222Z,-0.56
2018-03-22T19:50:44.873Z,-0.52
2018-03-22T19:53:12.502Z,-0.50
2018-03-22T19:55:40.090Z,-0.59
2018-03-22T19:58:07.694Z,-0.57
2018-03-22T20:00:35.335Z,-0.55
2018-03-22T20:03:02.902Z,-0.55
2018-03-22T20:05:30.525Z,-0.60
2018-03-22T20:07:58.179Z,-0.72
2018-03-22T20:10:25.799Z,-0.68
2018-03-22T20:12:53.383Z,-0.65
2018-03-22T20:15:20.952Z,-0.63
2018-03-22T20:17:48.635Z,-0.65
2018-03-22T20:20:16.262Z,-0.60
2018-03-22T20:22:43.892Z,-0.49
2018-03-22T20:25:11.535Z,-0.45
2018-03-22T20:27:39.101Z,-0.40
2018-03-22T20:30:06.735Z,-0.44
2018-03-22T20:32:34.304Z,-0.44
2018-03-22T20:35:02.016Z,-0.39
2018-03-22T20:37:29.630Z,-0.44
2018-03-22T20:39:57.207Z,-0.51
2018-03-22T20:42:24.800Z,-0.47
2018-03-22T20:44:52.362Z,-0.49
2018-03-22T20:47:19.992Z,-0.49
2018-03-22T20:49:47.554Z,-0.47
2018-03-22T20:52:15.174Z,-0.49
2018-03-22T20:54:42.798Z,-0.56
2018-03-22T20:57:10.422Z,-0.60
2018-03-22T20:59:38.063Z,-0.70
2018-03-22T21:02:05.622Z,-0.65
2018-03-22T21:04:33.255Z,-0.76
2018-03-22T21:07:00.884Z,-0.80
2018-03-22T21:09:28.598Z,-0.79
2018-03-22T21:11:56.231Z,-0.71
2018-03-22T21:14:23.794Z,-0.75
2018-03-22T21:16:51.385Z,-0.70
2018-03-22T21:19:18.955Z,-0.79
2018-03-22T21:21:46.526Z,-0.76
2018-03-22T21:24:14.084Z,-0.83
2018-03-22T21:26:41.761Z,-0.79
2018-03-22T21:29:09.326Z,-0.70
2018-03-22T21:31:36.954Z,-0.68
2018-03-22T21:34:04.583Z,-0.63
2018-03-22T21:36:32.141Z,-0.63
2018-03-22T21:38:59.742Z,-0.70
2018-03-22T21:41:27.367Z,-0.66
2018-03-22T21:44:06.811Z,-0.68
2018-03-22T21:46:34.385Z,-0.72
2018-03-22T21:49:02.011Z,-0.70
2018-03-22T21:51:29.640Z,-0.75
2018-03-22T21:53:57.174Z,-0.70
2018-03-22T21:56:24.799Z,-0.69
2018-03-22T21:58:52.362Z,-0.62
2018-03-22T22:01:20.049Z,-0.53
2018-03-22T22:03:47.621Z,-0.64
2018-03-22T22:06:15.276Z,-0.60
2018-03-22T22:08:42.860Z,-0.47
2018-03-22T22:11:10.418Z,-0.48
2018-03-22T22:13:37.987Z,-0.44
2018-03-22T22:16:05.557Z,-0.46
2018-03-22T22:18:33.170Z,-0.51
2018-03-22T22:21:00.737Z,-0.46
2018-03-22T22:23:28.362Z,-0.49
2018-03-22T22:25:55.940Z,-0.52
2018-03-22T22:28:23.578Z,-0.46
2018-03-22T22:30:51.222Z,-0.42
2018-03-22T22:33:18.794Z,-0.37
2018-03-22T22:35:46.481Z,-0.31
2018-03-22T22:38:14.047Z,-0.39
2018-03-22T22:40:41.607Z,-0.32
2018-03-22T22:43:09.190Z,-0.34
2018-03-22T22:45:36.758Z,-0.34
2018-03-22T22:48:04.378Z,-0.43
2018-03-22T22:50:31.938Z,-0.40
2018-03-22T22:52:59.691Z,-0.44
2018-03-22T22:55:27.255Z,-0.47
2018-03-22T22:57:54.814Z,-0.50
2018-03-22T23:00:22.468Z,-0.48
2018-03-22T23:02:50.040Z,-0.38
2018-03-22T23:05:17.679Z,-0.40
2018-03-22T23:07:45.262Z,-0.44
2018-03-22T23:10:12.898Z,-0.40
2018-03-22T23:12:40.531Z,-0.42
2018-03-22T23:15:08.090Z,-0.35
2018-03-22T23:17:35.659Z,-0.30
2018-03-22T23:20:03.224Z,-0.36
2018-03-22T23:22:30.802Z,-0.30
2018-03-22T23:24:58.381Z,-0.26
2018-03-22T23:27:26.010Z,-0.29
2018-03-22T23:29:53.634Z,-0.26
2018-03-22T23:32:21.296Z,-0.30
2018-03-22T23:34:48.875Z,-0.29
2018-03-22T23:37:16.439Z,-0.33
2018-03-22T23:39:44.011Z,-0.39
2018-03-22T23:42:11.647Z,-0.32
2018-03-22T23:44:39.319Z,-0.37
2018-03-22T23:47:06.947Z,-0.29
2018-03-22T23:49:34.606Z,-0.37
2018-03-22T23:52:02.240Z,-0.43
2018-03-22T23:54:29.865Z,-0.40
2018-03-22T23:56:57.434Z,-0.33
2018-03-22T23:59:25.053Z,-0.29
